sensor_id;sensor_type;location;lat;lon;timestamp;pressure;altitude;pressure_sealevel;temperature;humidity
76994;BME280;66749;47.406;18.822;2023-04-06T00:00:02;100619.25;;;0.58;59.15
76994;BME280;66749;47.406;18.822;2023-04-06T00:00:32;100620.16;;;0.55;59.97
76994;BME280;66749;47.406;18.822;2023-04-06T00:01:03;100613.28;;;0.58;59.47
76994;BME280;66749;47.406;18.822;2023-04-06T00:01:34;100619.28;;;0.57;59.98
76994;BME280;66749;47.406;18.822;2023-04-06T00:02:04;100618.47;;;0.51;60.09
76994;BME280;66749;47.406;18.822;2023-04-06T00:02:36;100622.72;;;0.55;60.53
76994;BME280;66749;47.406;18.822;2023-04-06T00:03:06;100615.91;;;0.53;60.02
76994;BME280;66749;47.406;18.822;2023-04-06T00:03:37;100620.13;;;0.57;60.57
76994;BME280;66749;47.406;18.822;2023-04-06T00:04:08;100616.72;;;0.57;59.73
76994;BME280;66749;47.406;18.822;2023-04-06T00:04:38;100618.44;;;0.54;60.49
76994;BME280;66749;47.406;18.822;2023-04-06T00:05:09;100612.47;;;0.54;59.81
76994;BME280;66749;47.406;18.822;2023-04-06T00:05:40;100618.44;;;0.54;59.93
76994;BME280;66749;47.406;18.822;2023-04-06T00:06:10;100617.59;;;0.55;59.57
76994;BME280;66749;47.406;18.822;2023-04-06T00:06:41;100616.72;;;0.57;60.08
76994;BME280;66749;47.406;18.822;2023-04-06T00:07:12;100617.59;;;0.55;59.47
76994;BME280;66749;47.406;18.822;2023-04-06T00:07:43;100618.44;;;0.56;59.74
76994;BME280;66749;47.406;18.822;2023-04-06T00:08:13;100615.00;;;0.55;60.88
76994;BME280;66749;47.406;18.822;2023-04-06T00:08:46;100620.16;;;0.55;60.34
76994;BME280;66749;47.406;18.822;2023-04-06T00:09:17;100618.41;;;0.58;61.06
76994;BME280;66749;47.406;18.822;2023-04-06T00:09:47;100614.97;;;0.59;60.25
76994;BME280;66749;47.406;18.822;2023-04-06T00:10:18;100614.16;;;0.57;60.35
76994;BME280;66749;47.406;18.822;2023-04-06T00:10:49;100612.44;;;0.55;60.63
76994;BME280;66749;47.406;18.822;2023-04-06T00:11:19;100608.97;;;0.61;60.74
76994;BME280;66749;47.406;18.822;2023-04-06T00:11:50;100614.94;;;0.62;60.04
76994;BME280;66749;47.406;18.822;2023-04-06T00:12:21;100607.25;;;0.59;60.75
76994;BME280;66749;47.406;18.822;2023-04-06T00:12:52;100617.56;;;0.57;60.26
76994;BME280;66749;47.406;18.822;2023-04-06T00:13:22;100610.72;;;0.56;60.94
76994;BME280;66749;47.406;18.822;2023-04-06T00:13:53;100611.56;;;0.57;60.18
76994;BME280;66749;47.406;18.822;2023-04-06T00:14:24;100615.00;;;0.55;60.98
76994;BME280;66749;47.406;18.822;2023-04-06T00:14:54;100612.44;;;0.55;60.43
76994;BME280;66749;47.406;18.822;2023-04-06T00:15:25;100609.88;;;0.55;60.59
76994;BME280;66749;47.406;18.822;2023-04-06T00:15:56;100612.41;;;0.57;60.33
76994;BME280;66749;47.406;18.822;2023-04-06T00:16:27;100609.91;;;0.54;60.55
76994;BME280;66749;47.406;18.822;2023-04-06T00:16:57;100614.97;;;0.59;60.88
76994;BME280;66749;47.406;18.822;2023-04-06T00:17:28;100613.25;;;0.59;60.72
76994;BME280;66749;47.406;18.822;2023-04-06T00:17:59;100606.38;;;0.60;60.53
76994;BME280;66749;47.406;18.822;2023-04-06T00:18:30;100611.56;;;0.58;60.88
76994;BME280;66749;47.406;18.822;2023-04-06T00:19:00;100614.16;;;0.55;59.97
76994;BME280;66749;47.406;18.822;2023-04-06T00:19:31;100604.75;;;0.55;60.55
76994;BME280;66749;47.406;18.822;2023-04-06T00:20:02;100606.50;;;0.53;60.71
76994;BME280;66749;47.406;18.822;2023-04-06T00:20:33;100608.19;;;0.51;60.30
76994;BME280;66749;47.406;18.822;2023-04-06T00:21:04;100606.50;;;0.50;60.46
76994;BME280;66749;47.406;18.822;2023-04-06T00:21:34;100604.84;;;0.48;60.73
76994;BME280;66749;47.406;18.822;2023-04-06T00:22:05;100599.72;;;0.46;60.95
76994;BME280;66749;47.406;18.822;2023-04-06T00:22:36;100615.09;;;0.48;60.82
76994;BME280;66749;47.406;18.822;2023-04-06T00:23:07;100606.53;;;0.49;61.20
76994;BME280;66749;47.406;18.822;2023-04-06T00:23:37;100606.53;;;0.49;61.38
76994;BME280;66749;47.406;18.822;2023-04-06T00:24:08;100609.09;;;0.49;60.54
76994;BME280;66749;47.406;18.822;2023-04-06T00:24:39;100608.25;;;0.48;60.38
76994;BME280;66749;47.406;18.822;2023-04-06T00:25:09;100605.69;;;0.48;60.88
76994;BME280;66749;47.406;18.822;2023-04-06T00:25:41;100604.84;;;0.46;60.44
76994;BME280;66749;47.406;18.822;2023-04-06T00:26:11;100603.13;;;0.48;60.19
76994;BME280;66749;47.406;18.822;2023-04-06T00:26:42;100601.44;;;0.46;60.21
76994;BME280;66749;47.406;18.822;2023-04-06T00:27:13;100602.34;;;0.42;59.65
76994;BME280;66749;47.406;18.822;2023-04-06T00:27:43;100598.88;;;0.44;59.66
76994;BME280;66749;47.406;18.822;2023-04-06T00:28:14;100598.91;;;0.41;59.98
76994;BME280;66749;47.406;18.822;2023-04-06T00:28:45;100604.88;;;0.43;60.96
76994;BME280;66749;47.406;18.822;2023-04-06T00:29:15;100605.75;;;0.42;60.41
76994;BME280;66749;47.406;18.822;2023-04-06T00:29:46;100608.34;;;0.41;60.68
76994;BME280;66749;47.406;18.822;2023-04-06T00:30:17;100604.91;;;0.40;60.85
76994;BME280;66749;47.406;18.822;2023-04-06T00:30:47;100601.53;;;0.38;60.68
76994;BME280;66749;47.406;18.822;2023-04-06T00:31:18;100598.09;;;0.36;60.80
76994;BME280;66749;47.406;18.822;2023-04-06T00:31:49;100604.94;;;0.37;61.23
76994;BME280;66749;47.406;18.822;2023-04-06T00:32:19;100598.16;;;0.33;60.77
76994;BME280;66749;47.406;18.822;2023-04-06T00:32:50;100598.16;;;0.30;61.16
76994;BME280;66749;47.406;18.822;2023-04-06T00:33:21;100605.03;;;0.31;60.67
76994;BME280;66749;47.406;18.822;2023-04-06T00:33:52;100594.75;;;0.31;60.81
76994;BME280;66749;47.406;18.822;2023-04-06T00:34:23;100599.91;;;0.28;61.66
76994;BME280;66749;47.406;18.822;2023-04-06T00:34:53;100593.03;;;0.30;62.13
76994;BME280;66749;47.406;18.822;2023-04-06T00:35:24;100592.19;;;0.30;62.06
76994;BME280;66749;47.406;18.822;2023-04-06T00:35:55;100582.84;;;0.25;62.13
76994;BME280;66749;47.406;18.822;2023-04-06T00:36:26;100586.25;;;0.26;61.39
76994;BME280;66749;47.406;18.822;2023-04-06T00:36:57;100592.28;;;0.23;62.06
76994;BME280;66749;47.406;18.822;2023-04-06T00:37:27;100587.13;;;0.25;62.30
76994;BME280;66749;47.406;18.822;2023-04-06T00:37:58;100588.88;;;0.23;61.92
76994;BME280;66749;47.406;18.822;2023-04-06T00:38:28;100592.25;;;0.25;61.69
76994;BME280;66749;47.406;18.822;2023-04-06T00:38:59;100589.72;;;0.22;62.11
76994;BME280;66749;47.406;18.822;2023-04-06T00:39:30;100588.88;;;0.20;62.39
76994;BME280;66749;47.406;18.822;2023-04-06T00:40:00;100586.31;;;0.20;62.77
76994;BME280;66749;47.406;18.822;2023-04-06T00:40:31;100586.38;;;0.14;61.86
76994;BME280;66749;47.406;18.822;2023-04-06T00:41:03;100591.50;;;0.14;62.18
76994;BME280;66749;47.406;18.822;2023-04-06T00:41:34;100579.59;;;0.10;62.38
76994;BME280;66749;47.406;18.822;2023-04-06T00:42:12;100589.84;;;0.11;62.27
76994;BME280;66749;47.406;18.822;2023-04-06T00:42:45;100588.16;;;0.09;61.84
76994;BME280;66749;47.406;18.822;2023-04-06T00:43:16;100584.72;;;0.07;61.80
76994;BME280;66749;47.406;18.822;2023-04-06T00:43:47;100589.00;;;0.06;62.11
76994;BME280;66749;47.406;18.822;2023-04-06T00:44:18;100581.31;;;0.06;61.88
76994;BME280;66749;47.406;18.822;2023-04-06T00:44:49;100586.50;;;0.03;61.53
76994;BME280;66749;47.406;18.822;2023-04-06T00:45:20;100583.94;;;0.02;62.58
76994;BME280;66749;47.406;18.822;2023-04-06T00:45:50;100577.97;;;-0.01;62.56
76994;BME280;66749;47.406;18.822;2023-04-06T00:46:21;100582.31;;;-0.06;61.94
76994;BME280;66749;47.406;18.822;2023-04-06T00:46:52;100588.31;;;-0.07;62.65
76994;BME280;66749;47.406;18.822;2023-04-06T00:47:23;100581.53;;;-0.14;61.86
76994;BME280;66749;47.406;18.822;2023-04-06T00:47:56;100581.53;;;-0.17;63.18
76994;BME280;66749;47.406;18.822;2023-04-06T00:48:26;100581.59;;;-0.20;62.39
76994;BME280;66749;47.406;18.822;2023-04-06T00:48:57;100581.59;;;-0.21;61.83
76994;BME280;66749;47.406;18.822;2023-04-06T00:49:28;100577.34;;;-0.24;62.27
76994;BME280;66749;47.406;18.822;2023-04-06T00:49:58;100579.03;;;-0.20;62.87
76994;BME280;66749;47.406;18.822;2023-04-06T00:50:29;100583.31;;;-0.20;62.56
76994;BME280;66749;47.406;18.822;2023-04-06T00:51:00;100586.72;;;-0.20;62.00
76994;BME280;66749;47.406;18.822;2023-04-06T00:51:31;100576.47;;;-0.20;62.34
76994;BME280;66749;47.406;18.822;2023-04-06T00:52:02;100578.97;;;-0.17;62.07
76994;BME280;66749;47.406;18.822;2023-04-06T00:52:34;100577.25;;;-0.16;62.49
76994;BME280;66749;47.406;18.822;2023-04-06T00:53:05;100581.53;;;-0.17;61.73
76994;BME280;66749;47.406;18.822;2023-04-06T00:53:36;100579.81;;;-0.16;62.15
76994;BME280;66749;47.406;18.822;2023-04-06T00:54:07;100573.84;;;-0.17;61.77
76994;BME280;66749;47.406;18.822;2023-04-06T00:54:37;100581.53;;;-0.17;62.36
76994;BME280;66749;47.406;18.822;2023-04-06T00:55:09;100579.84;;;-0.18;61.79
76994;BME280;66749;47.406;18.822;2023-04-06T00:55:40;100581.59;;;-0.20;61.92
76994;BME280;66749;47.406;18.822;2023-04-06T00:56:11;100579.88;;;-0.21;61.07
76994;BME280;66749;47.406;18.822;2023-04-06T00:56:41;100581.59;;;-0.21;61.42
76994;BME280;66749;47.406;18.822;2023-04-06T00:57:14;100583.31;;;-0.20;61.39
76994;BME280;66749;47.406;18.822;2023-04-06T00:57:44;100586.72;;;-0.21;61.49
76994;BME280;66749;47.406;18.822;2023-04-06T00:58:15;100583.31;;;-0.22;61.67
76994;BME280;66749;47.406;18.822;2023-04-06T00:58:46;100582.47;;;-0.25;61.56
76994;BME280;66749;47.406;18.822;2023-04-06T00:59:17;100580.81;;;-0.28;62.56
76994;BME280;66749;47.406;18.822;2023-04-06T00:59:47;100581.66;;;-0.28;62.13
76994;BME280;66749;47.406;18.822;2023-04-06T01:00:18;100581.66;;;-0.31;62.35
76994;BME280;66749;47.406;18.822;2023-04-06T01:00:49;100585.09;;;-0.30;62.29
76994;BME280;66749;47.406;18.822;2023-04-06T01:01:20;100576.56;;;-0.32;61.99
76994;BME280;66749;47.406;18.822;2023-04-06T01:01:50;100579.13;;;-0.34;61.51
76994;BME280;66749;47.406;18.822;2023-04-06T01:02:21;100580.84;;;-0.34;61.84
76994;BME280;66749;47.406;18.822;2023-04-06T01:02:52;100583.38;;;-0.31;62.24
76994;BME280;66749;47.406;18.822;2023-04-06T01:03:23;100584.25;;;-0.32;62.65
76994;BME280;66749;47.406;18.822;2023-04-06T01:03:54;100579.13;;;-0.32;62.01
76994;BME280;66749;47.406;18.822;2023-04-06T01:04:26;100582.53;;;-0.30;61.73
76994;BME280;66749;47.406;18.822;2023-04-06T01:04:57;100577.41;;;-0.30;62.46
76994;BME280;66749;47.406;18.822;2023-04-06T01:05:28;100589.34;;;-0.31;62.18
76994;BME280;66749;47.406;18.822;2023-04-06T01:05:58;100582.53;;;-0.30;62.78
76994;BME280;66749;47.406;18.822;2023-04-06T01:06:29;100583.38;;;-0.31;62.71
76994;BME280;66749;47.406;18.822;2023-04-06T01:07:00;100579.97;;;-0.33;62.83
76994;BME280;66749;47.406;18.822;2023-04-06T01:07:31;100585.97;;;-0.33;63.15
76994;BME280;66749;47.406;18.822;2023-04-06T01:08:01;100587.69;;;-0.35;62.56
76994;BME280;66749;47.406;18.822;2023-04-06T01:08:32;100585.94;;;-0.31;62.15
76994;BME280;66749;47.406;18.822;2023-04-06T01:09:02;100591.94;;;-0.29;63.11
76994;BME280;66749;47.406;18.822;2023-04-06T01:09:33;100586.81;;;-0.29;62.04
76994;BME280;66749;47.406;18.822;2023-04-06T01:10:04;100593.66;;;-0.34;63.12
76994;BME280;66749;47.406;18.822;2023-04-06T01:10:35;100586.84;;;-0.38;63.33
76994;BME280;66749;47.406;18.822;2023-04-06T01:11:06;100590.31;;;-0.41;62.97
76994;BME280;66749;47.406;18.822;2023-04-06T01:11:36;100586.03;;;-0.42;63.86
76994;BME280;66749;47.406;18.822;2023-04-06T01:12:07;100592.03;;;-0.41;63.22
76994;BME280;66749;47.406;18.822;2023-04-06T01:12:37;100590.28;;;-0.38;63.71
76994;BME280;66749;47.406;18.822;2023-04-06T01:13:09;100586.03;;;-0.42;63.15
76994;BME280;66749;47.406;18.822;2023-04-06T01:13:39;100587.78;;;-0.44;63.82
76994;BME280;66749;47.406;18.822;2023-04-06T01:14:10;100592.06;;;-0.44;63.44
76994;BME280;66749;47.406;18.822;2023-04-06T01:14:41;100590.34;;;-0.47;64.16
76994;BME280;66749;47.406;18.822;2023-04-06T01:15:12;100593.78;;;-0.45;63.06
76994;BME280;66749;47.406;18.822;2023-04-06T01:15:43;100596.34;;;-0.49;63.62
76994;BME280;66749;47.406;18.822;2023-04-06T01:16:14;100592.09;;;-0.50;64.18
76994;BME280;66749;47.406;18.822;2023-04-06T01:16:45;100587.00;;;-0.52;63.72
76994;BME280;66749;47.406;18.822;2023-04-06T01:17:15;100587.81;;;-0.53;63.95
76994;BME280;66749;47.406;18.822;2023-04-06T01:17:46;100583.56;;;-0.54;63.80
76994;BME280;66749;47.406;18.822;2023-04-06T01:18:17;100589.53;;;-0.53;64.32
76994;BME280;66749;47.406;18.822;2023-04-06T01:18:48;100586.97;;;-0.53;63.82
76994;BME280;66749;47.406;18.822;2023-04-06T01:19:18;100586.97;;;-0.53;64.27
76994;BME280;66749;47.406;18.822;2023-04-06T01:19:50;100592.09;;;-0.53;64.09
76994;BME280;66749;47.406;18.822;2023-04-06T01:20:24;100588.72;;;-0.52;64.08
76994;BME280;66749;47.406;18.822;2023-04-06T01:20:54;100592.09;;;-0.50;63.40
76994;BME280;66749;47.406;18.822;2023-04-06T01:21:25;100592.94;;;-0.50;63.69
76994;BME280;66749;47.406;18.822;2023-04-06T01:21:56;100591.25;;;-0.54;63.74
76994;BME280;66749;47.406;18.822;2023-04-06T01:22:27;100585.31;;;-0.56;64.64
76994;BME280;66749;47.406;18.822;2023-04-06T01:22:57;100585.28;;;-0.54;64.07
76994;BME280;66749;47.406;18.822;2023-04-06T01:23:28;100595.53;;;-0.54;64.25
76994;BME280;66749;47.406;18.822;2023-04-06T01:23:59;100586.16;;;-0.52;63.85
76994;BME280;66749;47.406;18.822;2023-04-06T01:24:29;100586.16;;;-0.52;64.09
76994;BME280;66749;47.406;18.822;2023-04-06T01:25:00;100582.72;;;-0.54;63.63
76994;BME280;66749;47.406;18.822;2023-04-06T01:25:31;100590.41;;;-0.54;63.63
76994;BME280;66749;47.406;18.822;2023-04-06T01:26:01;100586.97;;;-0.53;63.31
76994;BME280;66749;47.406;18.822;2023-04-06T01:26:33;100581.88;;;-0.57;63.77
76994;BME280;66749;47.406;18.822;2023-04-06T01:27:04;100585.31;;;-0.56;63.50
76994;BME280;66749;47.406;18.822;2023-04-06T01:27:35;100590.41;;;-0.54;63.46
76994;BME280;66749;47.406;18.822;2023-04-06T01:28:05;100592.09;;;-0.53;63.97
76994;BME280;66749;47.406;18.822;2023-04-06T01:28:36;100593.00;;;-0.56;64.02
76994;BME280;66749;47.406;18.822;2023-04-06T01:29:07;100584.44;;;-0.55;63.79
76994;BME280;66749;47.406;18.822;2023-04-06T01:29:39;100589.59;;;-0.58;64.13
76994;BME280;66749;47.406;18.822;2023-04-06T01:30:11;100588.75;;;-0.59;63.82
76994;BME280;66749;47.406;18.822;2023-04-06T01:30:42;100587.06;;;-0.60;63.93
76994;BME280;66749;47.406;18.822;2023-04-06T01:31:13;100589.56;;;-0.57;64.44
76994;BME280;66749;47.406;18.822;2023-04-06T01:31:43;100585.31;;;-0.56;64.39
76994;BME280;66749;47.406;18.822;2023-04-06T01:32:14;100582.72;;;-0.54;63.48
76994;BME280;66749;47.406;18.822;2023-04-06T01:32:44;100586.97;;;-0.53;63.19
76994;BME280;66749;47.406;18.822;2023-04-06T01:33:15;100587.81;;;-0.53;63.16
76994;BME280;66749;47.406;18.822;2023-04-06T01:33:46;100579.28;;;-0.50;63.90
76994;BME280;66749;47.406;18.822;2023-04-06T01:34:17;100583.53;;;-0.49;64.17
76994;BME280;66749;47.406;18.822;2023-04-06T01:34:47;100586.09;;;-0.49;63.86
76994;BME280;66749;47.406;18.822;2023-04-06T01:35:19;100584.38;;;-0.49;63.33
76994;BME280;66749;47.406;18.822;2023-04-06T01:35:49;100579.25;;;-0.47;63.76
76994;BME280;66749;47.406;18.822;2023-04-06T01:36:20;100584.34;;;-0.46;63.14
76994;BME280;66749;47.406;18.822;2023-04-06T01:36:51;100585.22;;;-0.45;63.01
76994;BME280;66749;47.406;18.822;2023-04-06T01:37:22;100588.63;;;-0.43;62.83
76994;BME280;66749;47.406;18.822;2023-04-06T01:37:52;100586.94;;;-0.44;62.73
76994;BME280;66749;47.406;18.822;2023-04-06T01:38:23;100591.19;;;-0.43;62.47
76994;BME280;66749;47.406;18.822;2023-04-06T01:38:53;100576.69;;;-0.44;62.80
76994;BME280;66749;47.406;18.822;2023-04-06T01:39:24;100580.06;;;-0.42;63.43
76994;BME280;66749;47.406;18.822;2023-04-06T01:39:55;100578.34;;;-0.40;62.86
76994;BME280;66749;47.406;18.822;2023-04-06T01:40:26;100575.75;;;-0.39;62.92
76994;BME280;66749;47.406;18.822;2023-04-06T01:40:57;100571.47;;;-0.38;62.79
76994;BME280;66749;47.406;18.822;2023-04-06T01:41:27;100581.75;;;-0.37;62.15
76994;BME280;66749;47.406;18.822;2023-04-06T01:41:58;100578.28;;;-0.34;62.38
76994;BME280;66749;47.406;18.822;2023-04-06T01:42:28;100578.28;;;-0.34;62.04
76994;BME280;66749;47.406;18.822;2023-04-06T01:43:00;100583.41;;;-0.34;62.49
76994;BME280;66749;47.406;18.822;2023-04-06T01:43:31;100573.19;;;-0.37;61.97
76994;BME280;66749;47.406;18.822;2023-04-06T01:44:02;100576.56;;;-0.32;62.30
76994;BME280;66749;47.406;18.822;2023-04-06T01:44:33;100581.66;;;-0.31;62.67
76994;BME280;66749;47.406;18.822;2023-04-06T01:45:03;100573.13;;;-0.31;61.83
76994;BME280;66749;47.406;18.822;2023-04-06T01:45:34;100578.25;;;-0.31;62.58
76994;BME280;66749;47.406;18.822;2023-04-06T01:46:05;100579.09;;;-0.29;62.72
76994;BME280;66749;47.406;18.822;2023-04-06T01:46:35;100579.97;;;-0.30;62.73
76994;BME280;66749;47.406;18.822;2023-04-06T01:47:06;100576.53;;;-0.29;62.03
76994;BME280;66749;47.406;18.822;2023-04-06T01:47:36;100572.25;;;-0.27;62.11
76994;BME280;66749;47.406;18.822;2023-04-06T01:48:07;100576.47;;;-0.24;61.90
76994;BME280;66749;47.406;18.822;2023-04-06T01:48:38;100577.38;;;-0.27;62.34
76994;BME280;66749;47.406;18.822;2023-04-06T01:49:09;100572.22;;;-0.25;61.72
76994;BME280;66749;47.406;18.822;2023-04-06T01:49:39;100570.56;;;-0.30;61.45
76994;BME280;66749;47.406;18.822;2023-04-06T01:50:10;100567.97;;;-0.26;62.29
76994;BME280;66749;47.406;18.822;2023-04-06T01:50:41;100573.13;;;-0.28;61.57
76994;BME280;66749;47.406;18.822;2023-04-06T01:51:11;100572.25;;;-0.27;61.95
76994;BME280;66749;47.406;18.822;2023-04-06T01:51:42;100573.97;;;-0.28;61.74
76994;BME280;66749;47.406;18.822;2023-04-06T01:52:12;100572.25;;;-0.27;62.41
76994;BME280;66749;47.406;18.822;2023-04-06T01:52:44;100567.09;;;-0.25;61.75
76994;BME280;66749;47.406;18.822;2023-04-06T01:53:14;100569.66;;;-0.22;61.88
76994;BME280;66749;47.406;18.822;2023-04-06T01:53:46;100568.81;;;-0.26;62.35
76994;BME280;66749;47.406;18.822;2023-04-06T01:54:18;100574.78;;;-0.25;61.51
76994;BME280;66749;47.406;18.822;2023-04-06T01:54:49;100572.28;;;-0.29;62.04
76994;BME280;66749;47.406;18.822;2023-04-06T01:55:19;100573.91;;;-0.24;62.52
76994;BME280;66749;47.406;18.822;2023-04-06T01:55:50;100566.28;;;-0.28;62.44
76994;BME280;66749;47.406;18.822;2023-04-06T01:56:21;100567.94;;;-0.25;62.15
76994;BME280;66749;47.406;18.822;2023-04-06T01:56:51;100564.56;;;-0.27;61.31
76994;BME280;66749;47.406;18.822;2023-04-06T01:57:22;100562.00;;;-0.27;61.81
76994;BME280;66749;47.406;18.822;2023-04-06T01:57:53;100570.50;;;-0.25;61.44
76994;BME280;66749;47.406;18.822;2023-04-06T01:58:24;100564.50;;;-0.24;62.41
76994;BME280;66749;47.406;18.822;2023-04-06T01:58:54;100563.69;;;-0.26;61.71
76994;BME280;66749;47.406;18.822;2023-04-06T01:59:25;100570.50;;;-0.25;62.34
76994;BME280;66749;47.406;18.822;2023-04-06T01:59:56;100566.22;;;-0.23;61.39
76994;BME280;66749;47.406;18.822;2023-04-06T02:00:27;100565.38;;;-0.25;62.16
76994;BME280;66749;47.406;18.822;2023-04-06T02:00:58;100569.66;;;-0.25;61.99
76994;BME280;66749;47.406;18.822;2023-04-06T02:01:28;100567.94;;;-0.25;61.38
76994;BME280;66749;47.406;18.822;2023-04-06T02:01:59;100569.63;;;-0.24;61.09
76994;BME280;66749;47.406;18.822;2023-04-06T02:02:29;100567.09;;;-0.25;61.32
76994;BME280;66749;47.406;18.822;2023-04-06T02:03:00;100567.94;;;-0.22;61.83
76994;BME280;66749;47.406;18.822;2023-04-06T02:03:31;100564.50;;;-0.24;61.26
76994;BME280;66749;47.406;18.822;2023-04-06T02:04:02;100570.50;;;-0.23;62.25
76994;BME280;66749;47.406;18.822;2023-04-06T02:04:32;100563.66;;;-0.24;60.99
76994;BME280;66749;47.406;18.822;2023-04-06T02:05:03;100569.66;;;-0.25;62.10
76994;BME280;66749;47.406;18.822;2023-04-06T02:05:34;100561.13;;;-0.28;62.00
76994;BME280;66749;47.406;18.822;2023-04-06T02:06:08;100565.41;;;-0.28;61.38
76994;BME280;66749;47.406;18.822;2023-04-06T02:06:39;100565.41;;;-0.28;61.44
76994;BME280;66749;47.406;18.822;2023-04-06T02:07:09;100563.72;;;-0.32;61.55
76994;BME280;66749;47.406;18.822;2023-04-06T02:07:40;100573.13;;;-0.31;61.45
76994;BME280;66749;47.406;18.822;2023-04-06T02:08:10;100568.00;;;-0.31;62.32
76994;BME280;66749;47.406;18.822;2023-04-06T02:08:41;100563.72;;;-0.31;62.37
76994;BME280;66749;47.406;18.822;2023-04-06T02:09:12;100565.50;;;-0.36;62.42
76994;BME280;66749;47.406;18.822;2023-04-06T02:09:42;100566.34;;;-0.37;62.34
76994;BME280;66749;47.406;18.822;2023-04-06T02:10:14;100567.22;;;-0.36;62.02
76994;BME280;66749;47.406;18.822;2023-04-06T02:10:44;100565.53;;;-0.42;61.99
76994;BME280;66749;47.406;18.822;2023-04-06T02:11:15;100564.69;;;-0.42;63.24
76994;BME280;66749;47.406;18.822;2023-04-06T02:11:46;100568.13;;;-0.43;62.55
76994;BME280;66749;47.406;18.822;2023-04-06T02:12:16;100565.56;;;-0.43;63.63
76994;BME280;66749;47.406;18.822;2023-04-06T02:12:47;100563.84;;;-0.46;62.71
76994;BME280;66749;47.406;18.822;2023-04-06T02:13:18;100568.13;;;-0.46;62.98
76994;BME280;66749;47.406;18.822;2023-04-06T02:13:48;100563.00;;;-0.46;63.66
76994;BME280;66749;47.406;18.822;2023-04-06T02:14:19;100569.88;;;-0.48;62.94
76994;BME280;66749;47.406;18.822;2023-04-06T02:14:49;100564.72;;;-0.48;63.50
76994;BME280;66749;47.406;18.822;2023-04-06T02:15:20;100569.00;;;-0.49;63.58
76994;BME280;66749;47.406;18.822;2023-04-06T02:15:51;100565.63;;;-0.51;62.67
76994;BME280;66749;47.406;18.822;2023-04-06T02:16:21;100563.06;;;-0.52;62.92
76994;BME280;66749;47.406;18.822;2023-04-06T02:16:52;100568.22;;;-0.52;62.53
76994;BME280;66749;47.406;18.822;2023-04-06T02:17:22;100556.22;;;-0.53;62.76
76994;BME280;66749;47.406;18.822;2023-04-06T02:17:53;100561.38;;;-0.52;62.75
76994;BME280;66749;47.406;18.822;2023-04-06T02:18:24;100563.09;;;-0.56;62.62
76994;BME280;66749;47.406;18.822;2023-04-06T02:18:55;100566.50;;;-0.57;63.20
76994;BME280;66749;47.406;18.822;2023-04-06T02:19:25;100558.00;;;-0.62;63.13
76994;BME280;66749;47.406;18.822;2023-04-06T02:19:56;100563.13;;;-0.62;62.61
76994;BME280;66749;47.406;18.822;2023-04-06T02:20:27;100558.00;;;-0.59;62.58
76994;BME280;66749;47.406;18.822;2023-04-06T02:20:57;100551.19;;;-0.60;62.82
76994;BME280;66749;47.406;18.822;2023-04-06T02:21:28;100557.09;;;-0.56;62.75
76994;BME280;66749;47.406;18.822;2023-04-06T02:21:58;100552.00;;;-0.58;62.68
76994;BME280;66749;47.406;18.822;2023-04-06T02:22:29;100545.16;;;-0.57;63.40
76994;BME280;66749;47.406;18.822;2023-04-06T02:23:00;100554.56;;;-0.61;62.42
76994;BME280;66749;47.406;18.822;2023-04-06T02:23:30;100555.47;;;-0.63;63.51
76994;BME280;66749;47.406;18.822;2023-04-06T02:24:01;100543.53;;;-0.67;62.93
76994;BME280;66749;47.406;18.822;2023-04-06T02:24:32;100552.94;;;-0.66;63.02
76994;BME280;66749;47.406;18.822;2023-04-06T02:25:03;100552.91;;;-0.65;63.41
76994;BME280;66749;47.406;18.822;2023-04-06T02:25:33;100552.06;;;-0.65;63.17
76994;BME280;66749;47.406;18.822;2023-04-06T02:26:05;100550.38;;;-0.68;62.83
76994;BME280;66749;47.406;18.822;2023-04-06T02:26:35;100546.09;;;-0.67;63.44
76994;BME280;66749;47.406;18.822;2023-04-06T02:27:06;100561.47;;;-0.69;62.89
76994;BME280;66749;47.406;18.822;2023-04-06T02:27:37;100557.22;;;-0.71;63.79
76994;BME280;66749;47.406;18.822;2023-04-06T02:28:07;100556.38;;;-0.70;62.90
76994;BME280;66749;47.406;18.822;2023-04-06T02:28:38;100549.59;;;-0.77;62.97
76994;BME280;66749;47.406;18.822;2023-04-06T02:29:08;100554.69;;;-0.76;63.08
76994;BME280;66749;47.406;18.822;2023-04-06T02:29:40;100552.13;;;-0.76;63.73
76994;BME280;66749;47.406;18.822;2023-04-06T02:30:11;100558.13;;;-0.77;63.10
76994;BME280;66749;47.406;18.822;2023-04-06T02:30:41;100552.13;;;-0.76;63.37
76994;BME280;66749;47.406;18.822;2023-04-06T02:31:12;100553.84;;;-0.75;62.40
76994;BME280;66749;47.406;18.822;2023-04-06T02:31:45;100550.44;;;-0.77;63.19
76994;BME280;66749;47.406;18.822;2023-04-06T02:32:15;100558.97;;;-0.76;63.13
76994;BME280;66749;47.406;18.822;2023-04-06T02:32:46;100557.31;;;-0.80;62.50
76994;BME280;66749;47.406;18.822;2023-04-06T02:33:16;100549.63;;;-0.85;63.50
76994;BME280;66749;47.406;18.822;2023-04-06T02:33:47;100557.31;;;-0.82;62.75
76994;BME280;66749;47.406;18.822;2023-04-06T02:34:18;100548.78;;;-0.86;63.44
76994;BME280;66749;47.406;18.822;2023-04-06T02:34:48;100555.66;;;-0.88;63.34
76994;BME280;66749;47.406;18.822;2023-04-06T02:35:19;100553.09;;;-0.89;63.19
76994;BME280;66749;47.406;18.822;2023-04-06T02:35:49;100557.34;;;-0.88;64.07
76994;BME280;66749;47.406;18.822;2023-04-06T02:36:20;100554.78;;;-0.91;63.29
76994;BME280;66749;47.406;18.822;2023-04-06T02:36:51;100552.28;;;-0.94;63.14
76994;BME280;66749;47.406;18.822;2023-04-06T02:37:21;100554.00;;;-0.96;64.21
76994;BME280;66749;47.406;18.822;2023-04-06T02:37:53;100555.72;;;-0.97;63.45
76994;BME280;66749;47.406;18.822;2023-04-06T02:38:24;100554.88;;;-0.97;63.88
76994;BME280;66749;47.406;18.822;2023-04-06T02:38:54;100548.91;;;-0.98;63.32
76994;BME280;66749;47.406;18.822;2023-04-06T02:39:25;100548.91;;;-0.98;63.34